Mesquita, Brazil
Current Conditions -  °F | °C
As of 5:00 PM on Thursday 23 Oct 2014 (Local Time) from SBBU Reporting Station
Clear Clear  
Wind Chill: 90°   Ceiling: Unl
Heat Index: 93°   Visibility: 6mi
Dew Point: 68°   Wind: 1mph
Humidity: 49%   Direction: 260°W
Pressure: 29.91"   Gusts: NA
Location:  22.02°S, 49.8°W
Report Text: SBBU 231900Z 26001KT CAVOK 32/20 Q1013
Loading
Personal Weather Stations






























Interactive Weather Map
Tropical Storm Tracking
New forecast layout! Learn more

10-Day Weather Forecast

Advertisements
Track Severe Weather on mobile